MDT,Max TemperatureF,Mean TemperatureF,Min TemperatureF,Max Dew PointF,MeanDew PointF,Min DewpointF,Max Humidity, Mean Humidity, Min Humidity, Max Sea Level PressureIn, Mean Sea Level PressureIn, Min Sea Level PressureIn, Max VisibilityMiles, Mean VisibilityMiles, Min VisibilityMiles, Max Wind SpeedMPH, Mean Wind SpeedMPH, Max Gust SpeedMPH,PrecipitationIn, CloudCover, Events, WindDirDegrees
2013-6-1,64,53,42,49,46,41,100,76,52,30.16,30.04,29.83,10,9,4,31,16,37,0.01,6,Rain,334
2013-6-2,70,54,37,50,45,36,92,70,47,30.15,30.00,29.85,10,10,10,22,11,29,0.00,0,,117
2013-6-3,76,64,52,56,50,46,80,62,43,29.83,29.70,29.60,10,10,10,21,13,29,0.00,0,,53
2013-6-4,66,57,48,46,44,41,80,63,45,30.13,30.00,29.86,10,10,10,31,18,39,0.00,2,,309
2013-6-5,64,54,44,49,45,42,100,76,52,30.15,30.11,30.08,10,10,10,25,12,32,0.00,7,,326
2013-6-6,72,55,38,50,45,37,100,69,38,30.10,30.05,30.02,10,10,9,14,4,18,0.00,2,,5
2013-6-7,82,62,42,57,51,41,96,66,36,30.04,29.83,29.62,10,10,10,23,7,29,0.03,2,Rain-Thunderstorm,117
2013-6-8,74,63,51,60,55,48,100,77,53,29.86,29.72,29.59,10,9,2,37,10,47,0.15,4,Rain-Thunderstorm,320
2013-6-9,80,64,47,56,50,47,100,68,35,29.91,29.85,29.78,10,10,10,17,8,28,0.00,0,,347
2013-6-10,88,71,53,62,56,50,89,65,40,29.76,29.71,29.67,10,10,10,22,9,26,0.00,0,,45
2013-6-11,83,71,58,65,59,50,90,70,49,29.97,29.78,29.70,10,10,8,38,17,53,0.02,4,Rain-Thunderstorm,61
2013-6-12,74,62,50,56,53,50,100,72,44,30.16,30.02,29.74,10,10,10,22,8,26,0.00,4,,25
2013-6-13,78,64,50,57,53,49,96,68,39,30.14,30.00,29.79,10,10,10,26,10,33,T,0,,121
2013-6-14,86,72,58,61,55,46,84,56,27,29.95,29.79,29.70,10,10,10,21,11,26,T,0,Rain,358
2013-6-15,82,69,56,51,46,41,69,48,26,30.00,29.95,29.91,10,10,10,15,4,17,0.00,3,,327
2013-6-16,78,64,49,58,54,47,93,67,40,30.04,29.98,29.92,10,10,7,26,7,33,0.22,3,Rain-Thunderstorm,199
2013-6-17,82,67,52,59,54,50,93,65,36,30.10,30.05,30.02,10,10,10,15,5,17,0.00,1,Thunderstorm,341
2013-6-18,86,68,50,61,56,51,100,70,40,30.08,29.98,29.84,10,8,0,17,9,22,0.00,1,Fog,115
2013-6-19,91,75,59,63,60,56,90,62,34,29.82,29.72,29.60,10,10,10,28,12,37,0.00,1,,133
2013-6-20,94,81,68,64,57,40,78,55,32,29.76,29.67,29.54,10,10,10,47,10,63,T,1,Rain,258
2013-6-21,81,71,60,67,63,56,93,74,54,29.88,29.79,29.73,10,9,3,30,14,39,0.33,5,Rain-Thunderstorm,50
2013-6-22,83,70,56,64,58,54,100,76,51,29.88,29.81,29.71,10,8,0,41,7,52,1.14,3,Fog-Rain-Thunderstorm,337
2013-6-23,80,67,53,59,54,49,93,65,36,29.88,29.83,29.79,10,10,10,18,8,23,0.00,0,,244
2013-6-24,88,75,61,69,60,44,93,59,25,29.77,29.65,29.56,10,10,9,35,12,48,0.00,0,,126
2013-6-25,91,74,57,63,57,53,93,64,34,29.76,29.63,29.57,10,10,10,25,9,32,0.00,0,,292
2013-6-26,95,75,54,62,57,53,93,60,26,29.92,29.83,29.77,10,10,10,14,6,25,0.00,0,,301
2013-6-27,92,76,59,61,56,52,90,59,28,30.07,29.99,29.93,10,10,10,21,8,24,0.00,0,,294
2013-6-28,90,73,56,56,52,49,86,56,26,30.12,30.07,30.03,10,10,10,26,12,35,0.00,0,,324
2013-6-29,87,73,58,55,50,44,80,53,25,30.09,30.06,30.00,10,10,10,20,8,31,0.00,2,,1
2013-6-30,85,69,52,58,54,50,93,65,37,30.17,30.10,30.08,10,10,10,20,6,24,0.00,2,,114